Time;durP1;ratioP1;P1;durP2;ratioP2;P2;SDS_P1;SDS_P2;PMS_P1;PMS_P2;Temp;Humidity;BMP_temperature;BMP_pressure;BME280_temperature;BME280_humidity;BME280_pressure;Samples;Min_cycle;Max_cycle;Signal;HPM_P1;HPM_P2
2023/03/30 00:00:33;;;;;;;0.70;0.70;;;;;;;4.74;54.71;100083.47;5050706;28;20224;-63
2023/03/30 00:03:01;;;;;;;0.67;0.67;;;;;;;4.66;54.46;100081.72;5050459;28;20204;-63
2023/03/30 00:05:28;;;;;;;0.60;0.60;;;;;;;4.54;54.47;100068.97;5049580;28;20200;-64
2023/03/30 00:07:55;;;;;;;0.70;0.70;;;;;;;4.59;53.71;100077.44;5050766;28;20549;-63
2023/03/30 00:10:22;;;;;;;0.70;0.70;;;;;;;4.63;53.70;100092.69;5050815;28;20664;-64
2023/03/30 00:12:50;;;;;;;0.70;0.70;;;;;;;4.55;54.64;100088.44;5050383;28;20216;-63
2023/03/30 00:15:21;;;;;;;0.70;0.70;;;;;;;4.42;54.90;100074.00;5050652;28;20254;-63
2023/03/30 00:17:49;;;;;;;0.80;0.80;;;;;;;4.36;54.68;100082.44;5051105;28;20656;-64
2023/03/30 00:20:17;;;;;;;0.70;0.70;;;;;;;4.30;55.04;100072.22;5050418;28;20201;-63
2023/03/30 00:22:45;;;;;;;0.87;0.87;;;;;;;4.31;55.10;100079.00;5050809;28;20204;-63
2023/03/30 00:25:14;;;;;;;0.70;0.70;;;;;;;4.23;55.18;100066.25;5050091;28;20192;-63
2023/03/30 00:27:41;;;;;;;0.80;0.80;;;;;;;4.18;55.09;100070.47;5050654;28;20205;-64
2023/03/30 00:30:11;;;;;;;0.60;0.60;;;;;;;4.28;55.00;100084.06;5050125;28;20208;-63
2023/03/30 00:32:39;;;;;;;0.70;0.70;;;;;;;4.31;54.78;100083.22;5048941;28;20212;-64
2023/03/30 00:35:07;;;;;;;0.77;0.77;;;;;;;4.32;54.94;100082.38;5049620;28;20193;-63
2023/03/30 00:37:36;;;;;;;0.60;0.60;;;;;;;4.34;54.86;100083.22;5050214;28;20201;-64
2023/03/30 00:40:06;;;;;;;0.60;0.60;;;;;;;4.36;54.95;100082.44;5049972;28;20296;-64
2023/03/30 00:42:33;;;;;;;0.60;0.60;;;;;;;4.36;55.08;100079.03;5050402;28;20604;-64
2023/03/30 00:45:09;;;;;;;0.70;0.70;;;;;;;4.37;55.12;100078.16;5050305;28;20192;-64
2023/03/30 00:47:41;;;;;;;0.80;0.80;;;;;;;4.39;55.34;100076.50;5047812;28;20196;-63
2023/03/30 00:50:09;;;;;;;0.80;0.80;;;;;;;4.39;55.34;100073.97;5049877;28;20196;-64
2023/03/30 00:52:37;;;;;;;1.00;1.00;;;;;;;4.31;55.61;100062.91;5050103;28;20250;-64
2023/03/30 00:55:06;;;;;;;0.80;0.80;;;;;;;4.29;55.28;100069.69;5050263;28;20311;-64
2023/03/30 00:57:35;;;;;;;0.70;0.70;;;;;;;4.28;55.30;100067.97;5049360;28;20196;-64
2023/03/30 01:00:05;;;;;;;0.70;0.70;;;;;;;4.05;55.38;100045.00;5050038;28;20612;-63
2023/03/30 01:02:36;;;;;;;0.70;0.70;;;;;;;4.04;55.60;100059.38;5045965;28;20233;-64
2023/03/30 01:05:05;;;;;;;0.67;0.67;;;;;;;3.91;56.47;100056.75;5047529;28;20369;-64
2023/03/30 01:07:33;;;;;;;0.60;0.60;;;;;;;3.98;56.43;100079.63;5049864;28;20588;-63
2023/03/30 01:10:01;;;;;;;0.70;0.70;;;;;;;3.84;56.19;100058.41;5050507;28;20197;-64
2023/03/30 01:12:28;;;;;;;0.70;0.70;;;;;;;3.97;56.36;100080.47;5049890;28;20291;-63
2023/03/30 01:14:56;;;;;;;0.70;0.70;;;;;;;3.98;56.02;100073.69;5050152;28;20212;-63
2023/03/30 01:17:32;;;;;;;0.70;0.70;;;;;;;3.99;56.11;100073.72;5049729;28;20197;-64
2023/03/30 01:20:27;;;;;;;0.87;0.87;;;;;;;4.00;56.46;100072.91;5046545;28;20204;-64
2023/03/30 01:23:26;;;;;;;0.70;0.70;;;;;;;3.98;56.67;100077.09;5045159;28;20197;-64
2023/03/30 01:26:19;;;;;;;0.83;0.83;;;;;;;4.00;56.31;100075.44;5050287;28;20258;-64
2023/03/30 01:28:52;;;;;;;0.70;0.70;;;;;;;4.01;55.83;100076.25;5046639;28;20213;-64
2023/03/30 01:31:44;;;;;;;0.73;0.73;;;;;;;3.98;56.03;100061.88;5049766;28;20193;-64
2023/03/30 01:34:31;;;;;;;0.70;0.70;;;;;;;4.04;55.88;100073.75;5045885;28;20220;-64
2023/03/30 01:37:17;;;;;;;0.83;0.83;;;;;;;4.05;56.03;100076.28;5046553;28;20219;-64
2023/03/30 01:39:55;;;;;;;0.63;0.63;;;;;;;4.07;55.67;100082.22;5047950;28;20580;-64
2023/03/30 01:42:28;;;;;;;0.60;0.60;;;;;;;4.04;55.40;100072.06;5049211;28;20220;-64
2023/03/30 01:45:07;;;;;;;0.70;0.70;;;;;;;3.98;55.27;100064.41;5049565;28;20192;-64
2023/03/30 01:47:38;;;;;;;0.70;0.70;;;;;;;4.12;55.35;100085.66;5048230;28;20196;-64
2023/03/30 01:50:11;;;;;;;0.80;0.80;;;;;;;4.14;55.43;100085.66;5049557;28;20255;-64
2023/03/30 01:52:42;;;;;;;0.80;0.80;;;;;;;4.15;55.53;100088.22;5049745;28;20564;-64
2023/03/30 01:55:17;;;;;;;0.60;0.60;;;;;;;4.16;55.40;100087.38;5047140;28;20270;-64
2023/03/30 01:57:50;;;;;;;0.60;0.60;;;;;;;4.16;55.50;100086.53;5050769;28;20203;-63
2023/03/30 02:00:20;;;;;;;0.60;0.60;;;;;;;4.18;55.40;100078.06;5053310;28;20220;-64
2023/03/30 02:02:53;;;;;;;0.70;0.70;;;;;;;4.16;55.36;100084.84;5053111;28;20236;-63
2023/03/30 02:05:22;;;;;;;0.80;0.80;;;;;;;4.09;55.17;100072.09;5053418;28;20193;-64
2023/03/30 02:07:53;;;;;;;0.77;0.77;;;;;;;4.13;55.38;100079.75;5053024;28;20208;-63
2023/03/30 02:10:24;;;;;;;0.60;0.60;;;;;;;4.15;55.46;100082.28;5052979;28;20197;-64
2023/03/30 02:12:52;;;;;;;0.77;0.77;;;;;;;4.09;55.31;100077.16;5052889;28;20201;-64
2023/03/30 02:15:20;;;;;;;0.60;0.60;;;;;;;4.14;55.72;100078.88;5052882;28;20224;-64
2023/03/30 02:17:47;;;;;;;0.60;0.60;;;;;;;4.13;56.10;100086.50;5053346;28;20209;-64
2023/03/30 02:20:16;;;;;;;0.90;0.90;;;;;;;4.10;55.84;100084.78;5052674;28;20259;-64
2023/03/30 02:22:44;;;;;;;0.70;0.70;;;;;;;4.09;55.78;100080.56;5053088;28;20200;-64
2023/03/30 02:25:12;;;;;;;0.70;0.70;;;;;;;4.08;55.97;100081.38;5052584;28;20197;-63
2023/03/30 02:27:41;;;;;;;0.70;0.70;;;;;;;4.06;55.85;100092.38;5053040;28;20207;-64
2023/03/30 02:30:09;;;;;;;0.80;0.80;;;;;;;4.01;56.56;100089.78;5052627;28;20620;-63
2023/03/30 02:32:41;;;;;;;0.60;0.60;;;;;;;4.01;56.47;100101.63;5052832;28;20204;-64
2023/03/30 02:35:21;;;;;;;0.60;0.60;;;;;;;3.96;56.91;100100.75;5051330;28;20307;-64
2023/03/30 02:38:23;;;;;;;0.60;0.60;;;;;;;3.80;57.65;100087.09;5052582;28;20219;-63
2023/03/30 02:40:58;;;;;;;0.70;0.70;;;;;;;3.74;57.86;100099.75;5025130;28;20200;-64
2023/03/30 02:43:37;;;;;;;0.80;0.80;;;;;;;3.64;58.18;100088.66;5052196;28;20610;-64
2023/03/30 02:46:19;;;;;;;0.70;0.70;;;;;;;3.70;58.19;100105.63;5050584;28;20290;-63
2023/03/30 02:48:56;;;;;;;0.70;0.70;;;;;;;3.63;59.01;100108.91;5050637;28;20576;-64
2023/03/30 02:51:39;;;;;;;0.60;0.60;;;;;;;3.62;58.84;100104.69;5052245;28;20203;-63
2023/03/30 02:54:16;;;;;;;0.70;0.70;;;;;;;3.61;58.91;100113.16;5051930;28;20224;-64
2023/03/30 02:56:47;;;;;;;0.70;0.70;;;;;;;3.61;59.00;100108.94;5048419;28;20204;-64
2023/03/30 02:59:20;;;;;;;0.70;0.70;;;;;;;3.56;59.02;100100.41;5050724;28;20254;-63
2023/03/30 03:01:53;;;;;;;0.67;0.67;;;;;;;3.61;58.80;100110.59;5051822;28;20224;-64
2023/03/30 03:04:22;;;;;;;0.70;0.70;;;;;;;3.62;59.09;100115.69;5051877;28;20196;-64
2023/03/30 03:06:51;;;;;;;0.70;0.70;;;;;;;3.63;59.23;100111.47;5052299;28;20255;-63
2023/03/30 03:09:19;;;;;;;0.70;0.70;;;;;;;3.62;58.92;100109.75;5051749;28;20644;-64
2023/03/30 03:11:46;;;;;;;0.67;0.67;;;;;;;3.62;59.05;100112.28;5051965;28;20201;-63
2023/03/30 03:14:14;;;;;;;0.60;0.60;;;;;;;3.61;59.14;100110.59;5051650;28;20213;-63
2023/03/30 03:16:41;;;;;;;0.70;0.70;;;;;;;3.61;58.81;100110.59;5052265;28;20684;-63
2023/03/30 03:19:08;;;;;;;0.70;0.70;;;;;;;3.61;58.58;100113.16;5051747;28;20205;-63
2023/03/30 03:21:35;;;;;;;0.60;0.60;;;;;;;3.64;58.49;100108.09;5050426;28;20577;-63
2023/03/30 03:24:02;;;;;;;0.60;0.60;;;;;;;3.66;58.88;100107.28;5051671;28;20288;-64
2023/03/30 03:26:30;;;;;;;0.80;0.80;;;;;;;3.63;59.92;100117.38;5051920;28;20204;-63
2023/03/30 03:28:56;;;;;;;0.70;0.70;;;;;;;3.62;59.69;100110.59;5052215;28;20554;-63
2023/03/30 03:31:25;;;;;;;0.80;0.80;;;;;;;3.55;59.91;100100.41;5050932;28;20200;-64
2023/03/30 03:33:52;;;;;;;0.60;0.60;;;;;;;3.56;59.83;100114.78;5047165;28;20234;-63
2023/03/30 03:36:19;;;;;;;0.60;0.60;;;;;;;3.45;60.28;100121.44;5051329;28;20204;-63
2023/03/30 03:38:46;;;;;;;0.67;0.67;;;;;;;3.41;60.45;100132.38;5051509;28;20200;-63
2023/03/30 03:41:13;;;;;;;0.80;0.80;;;;;;;3.35;61.03;100127.25;5051588;28;20661;-63
2023/03/30 03:43:39;;;;;;;0.80;0.80;;;;;;;3.28;61.48;100122.94;5051600;28;20572;-63
2023/03/30 03:46:06;;;;;;;0.70;0.70;;;;;;;3.24;61.67;100126.25;5051502;28;20196;-63
2023/03/30 03:48:34;;;;;;;1.07;1.07;;;;;;;3.13;62.06;100123.63;5050313;28;20312;-63
2023/03/30 03:51:02;;;;;;;0.77;0.77;;;;;;;3.13;61.74;100132.06;5047631;28;20283;-63
2023/03/30 03:53:29;;;;;;;0.93;0.93;;;;;;;3.00;61.68;100135.31;5050902;28;20231;-64
2023/03/30 03:55:56;;;;;;;0.60;0.60;;;;;;;2.87;62.01;100141.06;5051030;28;20217;-63
2023/03/30 03:58:23;;;;;;;0.83;0.83;;;;;;;2.80;62.15;100138.41;5050017;28;20197;-63
2023/03/30 04:00:52;;;;;;;0.70;0.70;;;;;;;2.80;61.91;100138.41;5051012;28;20293;-64
2023/03/30 04:03:18;;;;;;;2.43;2.10;;;;;;;2.76;61.40;100137.53;5047818;28;20208;-63
2023/03/30 04:05:47;;;;;;;2.37;2.37;;;;;;;2.68;61.18;100133.22;5049444;28;20196;-63
2023/03/30 04:08:16;;;;;;;1.83;1.83;;;;;;;2.73;61.16;100142.56;5051135;28;20201;-63
2023/03/30 04:10:44;;;;;;;2.93;2.73;;;;;;;2.62;61.29;100129.75;5050687;28;20636;-63
2023/03/30 04:13:10;;;;;;;1.17;1.17;;;;;;;2.69;61.56;100140.81;5050848;28;20201;-63
2023/03/30 04:15:37;;;;;;;0.70;0.70;;;;;;;2.65;61.85;100149.19;5050534;28;20213;-63
2023/03/30 04:18:05;;;;;;;1.43;1.43;;;;;;;2.73;61.88;100146.75;5050289;28;20197;-63
2023/03/30 04:20:32;;;;;;;1.33;1.33;;;;;;;2.78;61.85;100145.97;5050822;28;20703;-63
2023/03/30 04:23:01;;;;;;;0.80;0.80;;;;;;;2.81;61.60;100146.03;5050834;28;20199;-63
2023/03/30 04:25:28;;;;;;;0.83;0.83;;;;;;;2.85;61.89;100152.81;5047321;28;20192;-63
2023/03/30 04:27:56;;;;;;;0.80;0.80;;;;;;;2.89;61.96;100158.78;5048220;28;20200;-63
2023/03/30 04:30:23;;;;;;;0.70;0.70;;;;;;;3.00;61.88;100160.66;5050840;28;20213;-63
2023/03/30 04:33:01;;;;;;;0.77;0.77;;;;;;;3.10;61.91;100152.28;5050764;28;20196;-63
2023/03/30 04:35:29;;;;;;;0.87;0.87;;;;;;;3.23;62.38;100155.84;5050343;28;20216;-63
2023/03/30 04:37:56;;;;;;;1.60;1.10;;;;;;;3.34;62.34;100161.88;5050104;28;20267;-63
2023/03/30 04:40:25;;;;;;;0.60;0.60;;;;;;;3.48;62.48;100167.94;5050615;28;20645;-63
2023/03/30 04:42:52;;;;;;;0.80;0.80;;;;;;;3.63;62.29;100169.78;5050530;28;20196;-63
2023/03/30 04:45:19;;;;;;;0.63;0.63;;;;;;;3.81;61.90;100176.72;5047079;28;20197;-63
2023/03/30 04:47:46;;;;;;;1.43;1.43;;;;;;;3.90;61.67;100177.66;5049567;28;20211;-63
2023/03/30 04:50:13;;;;;;;0.90;0.90;;;;;;;3.87;60.83;100176.78;5050131;28;20661;-63
2023/03/30 04:52:40;;;;;;;0.70;0.70;;;;;;;3.93;60.83;100182.75;5050372;28;20665;-63
2023/03/30 04:55:08;;;;;;;1.10;1.10;;;;;;;4.04;60.68;100171.00;5050312;28;20231;-63
2023/03/30 04:57:36;;;;;;;2.90;2.70;;;;;;;4.20;60.36;100188.03;5048816;28;20324;-63
2023/03/30 05:00:06;;;;;;;1.47;1.37;;;;;;;4.40;60.55;100189.88;5050185;28;20714;-65
2023/03/30 05:02:33;;;;;;;1.00;1.00;;;;;;;4.60;59.67;100193.41;5038517;28;20200;-68
2023/03/30 05:05:00;;;;;;;0.70;0.70;;;;;;;4.76;60.05;100202.81;5041548;28;20208;-74
2023/03/30 05:07:27;;;;;;;0.60;0.60;;;;;;;4.96;59.15;100191.09;5047948;28;20201;-64
2023/03/30 05:09:54;;;;;;;0.60;0.60;;;;;;;4.87;57.69;100193.59;5049311;28;20676;-64
2023/03/30 05:12:20;;;;;;;0.90;0.87;;;;;;;4.92;57.79;100191.91;5047064;28;20224;-64
2023/03/30 05:14:49;;;;;;;0.90;0.90;;;;;;;4.84;57.83;100193.56;5049090;28;20216;-64
2023/03/30 05:17:15;;;;;;;1.10;1.10;;;;;;;4.95;57.61;100197.00;5049165;28;20215;-64
2023/03/30 05:19:42;;;;;;;0.60;0.60;;;;;;;5.15;57.00;100194.56;5047698;28;20201;-63
2023/03/30 05:22:09;;;;;;;0.80;0.80;;;;;;;5.29;56.94;100203.94;5046144;28;20205;-63
2023/03/30 05:24:36;;;;;;;0.93;0.93;;;;;;;5.42;56.86;100209.06;5048003;28;20220;-64
2023/03/30 05:27:03;;;;;;;0.60;0.60;;;;;;;5.68;56.96;100202.38;5048031;28;20589;-65
2023/03/30 05:29:30;;;;;;;0.70;0.70;;;;;;;5.99;56.39;100210.94;5048232;28;20220;-63
2023/03/30 05:31:58;;;;;;;0.70;0.70;;;;;;;6.34;55.33;100216.88;5047833;28;20208;-63
2023/03/30 05:34:25;;;;;;;0.77;0.77;;;;;;;6.66;54.09;100215.16;5051409;28;20211;-63
2023/03/30 05:36:52;;;;;;;0.70;0.70;;;;;;;6.99;52.46;100214.25;5050094;28;20656;-63
2023/03/30 05:39:20;;;;;;;0.63;0.63;;;;;;;7.32;51.85;100219.25;5053013;28;20193;-63
2023/03/30 05:41:46;;;;;;;0.60;0.60;;;;;;;7.57;51.70;100208.91;5052686;28;20627;-63
2023/03/30 05:44:13;;;;;;;0.60;0.60;;;;;;;7.72;49.60;100213.94;5051553;28;20200;-63
2023/03/30 05:46:40;;;;;;;0.70;0.70;;;;;;;7.67;49.88;100216.53;5052301;28;20267;-65
2023/03/30 05:49:08;;;;;;;0.70;0.70;;;;;;;7.97;50.21;100212.94;5053866;28;20197;-65
2023/03/30 05:51:35;;;;;;;0.90;0.90;;;;;;;8.32;50.56;100212.69;5054142;28;20618;-65
2023/03/30 05:54:02;;;;;;;0.70;0.70;;;;;;;8.70;48.88;100215.78;5053292;28;20192;-64
2023/03/30 05:56:29;;;;;;;0.63;0.63;;;;;;;8.98;47.85;100206.13;5053409;28;20783;-66
2023/03/30 05:58:56;;;;;;;0.57;0.57;;;;;;;9.16;48.39;100216.13;5053819;28;20204;-65
2023/03/30 06:01:24;;;;;;;0.60;0.60;;;;;;;9.29;47.54;100215.13;5053988;28;20654;-66
2023/03/30 06:03:51;;;;;;;0.77;0.77;;;;;;;9.56;47.63;100216.50;5053206;28;20201;-64
2023/03/30 06:06:20;;;;;;;0.60;0.60;;;;;;;9.67;46.96;100224.03;5053060;28;20258;-64
2023/03/30 06:08:48;;;;;;;0.50;0.50;;;;;;;9.92;45.74;100230.50;5052959;28;20211;-64
2023/03/30 06:11:15;;;;;;;1.23;1.23;;;;;;;10.24;45.95;100232.63;5052359;28;20684;-64
2023/03/30 06:13:42;;;;;;;0.60;0.60;;;;;;;10.44;45.44;100233.16;5053050;28;20204;-64
2023/03/30 06:16:09;;;;;;;0.50;0.50;;;;;;;10.72;44.85;100231.84;5052962;28;20212;-64
2023/03/30 06:18:36;;;;;;;0.50;0.50;;;;;;;10.98;44.24;100229.66;5053245;28;20201;-64
2023/03/30 06:21:05;;;;;;;0.57;0.57;;;;;;;11.14;43.96;100232.75;5052988;28;20629;-65
2023/03/30 06:23:34;;;;;;;0.60;0.60;;;;;;;11.36;43.50;100223.75;5051229;28;20211;-65
2023/03/30 06:26:01;;;;;;;0.50;0.50;;;;;;;11.68;44.01;100222.22;5051043;28;20284;-65
2023/03/30 06:28:28;;;;;;;0.47;0.47;;;;;;;12.04;43.72;100231.75;5049430;28;20588;-65
2023/03/30 06:30:55;;;;;;;0.63;0.63;;;;;;;12.35;43.82;100231.84;5051133;28;20200;-65
2023/03/30 06:33:24;;;;;;;0.40;0.40;;;;;;;12.59;43.78;100237.25;5050294;28;20212;-65
2023/03/30 06:35:53;;;;;;;0.50;0.50;;;;;;;12.72;42.61;100239.50;5049675;28;20216;-65
2023/03/30 06:38:21;;;;;;;0.50;0.50;;;;;;;12.69;44.23;100237.03;5051470;28;20204;-65
2023/03/30 06:40:50;;;;;;;0.60;0.60;;;;;;;12.75;43.63;100236.84;5051302;28;20232;-65
2023/03/30 06:43:21;;;;;;;0.60;0.60;;;;;;;13.06;42.57;100227.44;5050684;28;20197;-65
2023/03/30 06:45:51;;;;;;;0.50;0.50;;;;;;;13.21;43.87;100229.66;5051724;28;20203;-65
2023/03/30 06:48:19;;;;;;;0.50;0.50;;;;;;;13.39;44.59;100229.13;5050644;28;20208;-65
2023/03/30 06:50:47;;;;;;;0.70;0.70;;;;;;;13.53;43.48;100229.59;5050372;28;20201;-65
2023/03/30 06:53:14;;;;;;;0.50;0.50;;;;;;;13.56;44.28;100219.19;5051070;28;20208;-65
2023/03/30 06:55:42;;;;;;;0.70;0.70;;;;;;;13.75;45.24;100228.94;5051964;28;20212;-65
2023/03/30 06:58:10;;;;;;;0.60;0.60;;;;;;;13.71;43.23;100228.19;5052428;28;20209;-66
2023/03/30 07:00:37;;;;;;;0.50;0.50;;;;;;;13.81;45.71;100223.59;5051514;28;20235;-65
2023/03/30 07:03:05;;;;;;;1.07;0.73;;;;;;;13.89;42.67;100229.38;5052163;28;20562;-66
2023/03/30 07:05:32;;;;;;;0.50;0.50;;;;;;;13.76;42.39;100230.63;5051006;28;20580;-66
2023/03/30 07:07:59;;;;;;;0.37;0.37;;;;;;;13.65;43.11;100218.91;5051000;28;20197;-66
2023/03/30 07:10:26;;;;;;;0.67;0.67;;;;;;;13.63;43.76;100220.66;5051996;28;20214;-66
2023/03/30 07:12:52;;;;;;;0.60;0.60;;;;;;;13.72;42.91;100229.03;5050921;28;20199;-65
2023/03/30 07:15:21;;;;;;;0.60;0.60;;;;;;;13.80;43.60;100227.06;5051651;28;20219;-65
2023/03/30 07:17:48;;;;;;;0.50;0.50;;;;;;;13.99;43.79;100228.22;5050359;28;20205;-65
2023/03/30 07:20:15;;;;;;;0.60;0.60;;;;;;;14.20;43.43;100228.38;5047457;28;20214;-66
2023/03/30 07:22:42;;;;;;;0.43;0.43;;;;;;;14.34;42.25;100225.38;5051911;28;20234;-65
2023/03/30 07:25:09;;;;;;;0.50;0.50;;;;;;;14.33;41.92;100213.38;5052530;28;20668;-66
2023/03/30 07:27:36;;;;;;;0.50;0.50;;;;;;;14.29;41.83;100222.06;5052177;28;20576;-66
2023/03/30 07:30:04;;;;;;;0.50;0.50;;;;;;;14.29;42.66;100222.06;5048082;28;20229;-65
2023/03/30 07:32:32;;;;;;;0.60;0.60;;;;;;;14.40;41.85;100220.03;5047437;28;20656;-65
2023/03/30 07:34:59;;;;;;;0.60;0.60;;;;;;;14.50;41.07;100231.75;5049590;28;20204;-65
2023/03/30 07:37:27;;;;;;;0.53;0.53;;;;;;;14.62;40.60;100226.16;5050619;28;20315;-63
2023/03/30 07:39:54;;;;;;;0.50;0.50;;;;;;;14.76;41.84;100223.13;5051470;28;20309;-62
2023/03/30 07:42:21;;;;;;;0.50;0.50;;;;;;;14.93;40.21;100225.94;5051767;28;20200;-64
2023/03/30 07:44:48;;;;;;;0.43;0.43;;;;;;;15.12;41.55;100221.00;5051230;28;20197;-64
2023/03/30 07:47:14;;;;;;;0.50;0.50;;;;;;;15.06;39.78;100221.19;5051113;28;20626;-63
2023/03/30 07:49:42;;;;;;;0.40;0.40;;;;;;;15.18;39.76;100225.94;5051365;28;20193;-63
2023/03/30 07:52:09;;;;;;;0.60;0.60;;;;;;;15.40;41.13;100219.09;5050859;28;20204;-64
2023/03/30 07:54:36;;;;;;;0.50;0.50;;;;;;;15.54;41.09;100221.22;5050825;28;20223;-64
2023/03/30 07:57:03;;;;;;;0.50;0.50;;;;;;;15.56;39.83;100219.41;5050404;28;20243;-63
2023/03/30 07:59:30;;;;;;;0.50;0.50;;;;;;;15.77;40.57;100216.84;5050112;28;20197;-66
2023/03/30 08:01:57;;;;;;;0.60;0.60;;;;;;;15.81;39.13;100224.47;5049044;28;20222;-66
2023/03/30 08:04:24;;;;;;;0.50;0.50;;;;;;;15.81;40.41;100221.88;5049724;28;20241;-66
2023/03/30 08:06:52;;;;;;;0.87;0.87;;;;;;;15.90;38.39;100221.53;5050269;28;20207;-66
2023/03/30 08:09:19;;;;;;;0.40;0.40;;;;;;;15.89;39.37;100225.03;5049606;28;20691;-66
2023/03/30 08:11:47;;;;;;;0.57;0.57;;;;;;;15.86;39.46;100220.00;5050564;28;20192;-66
2023/03/30 08:14:13;;;;;;;0.60;0.60;;;;;;;15.81;39.70;100214.97;5050457;28;20208;-66
2023/03/30 08:16:40;;;;;;;0.50;0.50;;;;;;;15.84;40.58;100221.78;5050203;28;20226;-66
2023/03/30 08:19:07;;;;;;;0.60;0.60;;;;;;;15.93;40.17;100211.09;5045344;28;20276;-66
2023/03/30 08:21:34;;;;;;;0.50;0.50;;;;;;;15.98;38.18;100210.00;5049657;28;20277;-66
2023/03/30 08:24:02;;;;;;;0.50;0.50;;;;;;;16.07;39.76;100208.78;5051078;28;20676;-67
2023/03/30 08:26:29;;;;;;;0.50;0.50;;;;;;;16.12;39.26;100199.13;5050942;28;20584;-66
2023/03/30 08:28:56;;;;;;;0.60;0.60;;;;;;;16.16;42.23;100201.50;5051032;28;20211;-67
2023/03/30 08:31:23;;;;;;;0.40;0.40;;;;;;;16.32;40.26;100199.13;5049349;28;20691;-67
2023/03/30 08:33:50;;;;;;;0.53;0.53;;;;;;;16.37;41.00;100198.97;5050637;28;20201;-67
2023/03/30 08:36:19;;;;;;;0.50;0.50;;;;;;;16.44;39.60;100192.63;5050066;28;20221;-66
2023/03/30 08:38:46;;;;;;;0.70;0.70;;;;;;;16.36;40.45;100189.50;5050655;28;20661;-67
2023/03/30 08:41:42;;;;;;;0.50;0.50;;;;;;;16.31;37.85;100171.59;5050725;28;20197;-67
2023/03/30 08:44:19;;;;;;;0.37;0.37;;;;;;;16.56;37.95;100169.69;5049646;28;20577;-67
2023/03/30 08:46:47;;;;;;;0.40;0.40;;;;;;;16.42;39.72;100158.19;5050116;28;20521;-67
2023/03/30 08:49:18;;;;;;;0.60;0.60;;;;;;;16.18;40.66;100134.19;5047512;28;20201;-67
2023/03/30 08:51:47;;;;;;;0.50;0.50;;;;;;;16.14;40.43;100163.69;5047779;28;20208;-67
2023/03/30 08:54:16;;;;;;;0.40;0.40;;;;;;;15.92;41.08;100157.69;5049090;28;20215;-67
2023/03/30 08:56:54;;;;;;;0.60;0.60;;;;;;;15.98;40.47;100157.44;5049990;28;20228;-67
2023/03/30 08:59:28;;;;;;;1.10;1.10;;;;;;;15.85;39.41;100161.41;5049855;28;20650;-67
2023/03/30 09:02:00;;;;;;;0.40;0.40;;;;;;;16.00;40.29;100165.97;5050109;28;20196;-67
2023/03/30 09:04:42;;;;;;;0.50;0.50;;;;;;;16.10;42.35;100150.03;5049167;28;20661;-66
2023/03/30 09:07:15;;;;;;;0.50;0.50;;;;;;;16.27;41.10;100149.34;5051514;28;20201;-67
2023/03/30 09:09:43;;;;;;;0.50;0.50;;;;;;;16.33;43.48;100146.47;5054152;28;20204;-67
2023/03/30 09:12:22;;;;;;;0.50;0.50;;;;;;;16.58;40.57;100143.72;5053631;28;20569;-66
2023/03/30 09:14:53;;;;;;;0.60;0.60;;;;;;;16.61;41.06;100134.06;5052649;28;20665;-66
2023/03/30 09:17:25;;;;;;;0.43;0.43;;;;;;;16.68;41.69;100138.09;5053771;28;20329;-67
2023/03/30 09:19:56;;;;;;;0.50;0.50;;;;;;;16.74;40.38;100134.38;5053648;28;20216;-66
2023/03/30 09:22:29;;;;;;;0.40;0.40;;;;;;;16.79;40.01;100132.44;5053764;28;20290;-66
2023/03/30 09:24:56;;;;;;;0.50;0.50;;;;;;;16.93;41.56;100121.50;5053305;28;20219;-66
2023/03/30 09:27:34;;;;;;;0.50;0.50;;;;;;;16.96;40.37;100117.03;5052811;28;20223;-66
2023/03/30 09:30:16;;;;;;;0.40;0.40;;;;;;;16.93;38.82;100119.72;5053643;28;20192;-66
2023/03/30 09:32:53;;;;;;;0.60;0.60;;;;;;;16.99;36.80;100118.63;5053469;28;20606;-66
2023/03/30 09:35:25;;;;;;;0.50;0.50;;;;;;;16.93;37.69;100117.13;5053389;28;20196;-66
2023/03/30 09:37:52;;;;;;;0.40;0.40;;;;;;;16.92;36.83;100127.56;5051419;28;20275;-66
2023/03/30 09:40:31;;;;;;;0.50;0.50;;;;;;;17.07;38.57;100122.53;5053232;28;20197;-66
2023/03/30 09:43:08;;;;;;;0.53;0.53;;;;;;;16.90;37.05;100122.44;5053549;28;20235;-66
2023/03/30 09:45:36;;;;;;;0.30;0.30;;;;;;;16.63;37.42;100101.22;5053839;28;20237;-66
2023/03/30 09:48:07;;;;;;;0.50;0.50;;;;;;;16.87;41.62;100101.88;5053320;28;20573;-69
2023/03/30 09:50:38;;;;;;;0.50;0.50;;;;;;;16.88;38.69;100100.13;5049437;28;20200;-66
2023/03/30 09:53:09;;;;;;;0.50;0.50;;;;;;;16.90;37.95;100103.50;5052166;28;20201;-66
2023/03/30 09:55:37;;;;;;;0.43;0.43;;;;;;;17.02;36.58;100098.59;5050909;28;20914;-65
2023/03/30 09:58:13;;;;;;;0.50;0.50;;;;;;;17.01;37.33;100085.72;5053042;28;20611;-66
2023/03/30 10:00:40;;;;;;;0.40;0.40;;;;;;;17.23;40.14;100081.22;5053080;28;20251;-67
2023/03/30 10:03:08;;;;;;;0.40;0.40;;;;;;;17.36;36.61;100087.50;5053202;28;20196;-66
2023/03/30 10:05:36;;;;;;;0.63;0.63;;;;;;;17.45;37.82;100078.47;5051233;28;20205;-67
2023/03/30 10:08:06;;;;;;;0.67;0.67;;;;;;;17.36;35.98;100069.38;5052415;28;20680;-66
2023/03/30 10:10:35;;;;;;;0.50;0.50;;;;;;;17.40;36.86;100072.66;5053396;28;20193;-67
2023/03/30 10:13:07;;;;;;;0.57;0.57;;;;;;;17.45;37.79;100061.16;5053086;28;20204;-66
2023/03/30 10:15:37;;;;;;;0.60;0.60;;;;;;;17.64;37.02;100061.97;5052667;28;20215;-67
2023/03/30 10:18:23;;;;;;;0.50;0.50;;;;;;;17.61;37.04;100059.53;5043286;28;20212;-66
2023/03/30 10:20:52;;;;;;;0.50;0.50;;;;;;;17.77;38.65;100051.88;5050581;28;20196;-67
2023/03/30 10:23:23;;;;;;;0.50;0.50;;;;;;;17.80;36.62;100052.53;5047550;28;20201;-66
2023/03/30 10:25:51;;;;;;;0.50;0.50;;;;;;;17.90;34.24;100052.09;5051432;28;20565;-67
2023/03/30 10:28:20;;;;;;;0.50;0.50;;;;;;;17.90;33.60;100052.09;5052044;28;20219;-66
2023/03/30 10:30:55;;;;;;;0.50;0.50;;;;;;;17.88;31.49;100051.31;5052401;28;20693;-67
2023/03/30 10:33:23;;;;;;;0.50;0.50;;;;;;;17.95;32.98;100040.56;5051784;28;20284;-67
2023/03/30 10:35:54;;;;;;;0.50;0.50;;;;;;;18.06;35.08;100045.22;5052126;28;20205;-67
2023/03/30 10:38:21;;;;;;;0.50;0.50;;;;;;;18.09;32.95;100042.47;5052366;28;20644;-66
2023/03/30 10:40:51;;;;;;;0.60;0.60;;;;;;;18.18;33.59;100026.44;5052196;28;20204;-67
2023/03/30 10:43:22;;;;;;;0.40;0.40;;;;;;;18.03;31.60;100033.22;5051260;28;20288;-66
2023/03/30 10:45:53;;;;;;;0.40;0.40;;;;;;;18.14;32.10;100027.50;5052219;28;20219;-67
2023/03/30 10:48:40;;;;;;;0.50;0.50;;;;;;;18.25;32.23;100020.03;5050696;28;20201;-66
2023/03/30 10:51:13;;;;;;;0.57;0.57;;;;;;;18.15;29.48;100016.22;5052242;28;20204;-67
2023/03/30 10:53:50;;;;;;;0.60;0.60;;;;;;;18.14;32.27;100014.53;5051457;28;20587;-67
2023/03/30 10:56:27;;;;;;;0.50;0.50;;;;;;;18.10;30.50;100013.00;5052672;28;20220;-67
2023/03/30 10:59:17;;;;;;;0.47;0.47;;;;;;;18.16;29.90;100002.31;5052573;28;20193;-65
2023/03/30 11:02:00;;;;;;;0.40;0.40;;;;;;;18.15;29.96;99995.44;5050733;28;20224;-67
2023/03/30 11:04:31;;;;;;;0.50;0.50;;;;;;;18.31;30.40;99992.00;5050768;28;20212;-67
2023/03/30 11:07:00;;;;;;;0.57;0.57;;;;;;;18.42;30.42;99988.81;5051161;28;20189;-67
2023/03/30 11:09:32;;;;;;;0.40;0.40;;;;;;;18.47;31.31;99980.78;5051178;28;20216;-67
2023/03/30 11:12:03;;;;;;;0.40;0.40;;;;;;;18.56;31.36;99968.19;5049127;28;20297;-68
2023/03/30 11:14:50;;;;;;;0.50;0.50;;;;;;;18.62;31.51;99970.44;5049779;28;20216;-67
2023/03/30 11:17:25;;;;;;;0.40;0.40;;;;;;;18.62;28.66;99970.44;5049958;28;20874;-67
2023/03/30 11:19:56;;;;;;;0.50;0.50;;;;;;;18.65;29.51;99957.28;5050679;28;20778;-67
2023/03/30 11:22:33;;;;;;;0.50;0.50;;;;;;;18.37;28.99;99951.88;5051292;28;20196;-67
2023/03/30 11:25:01;;;;;;;0.47;0.47;;;;;;;18.39;29.82;99947.44;5051330;28;20274;-67
2023/03/30 11:27:31;;;;;;;0.40;0.40;;;;;;;18.14;29.11;99936.69;5050749;28;20570;-67
2023/03/30 11:30:03;;;;;;;0.50;0.50;;;;;;;18.16;29.68;99946.06;5049384;28;20197;-67
2023/03/30 11:32:41;;;;;;;0.60;0.60;;;;;;;18.37;32.45;99941.50;5051187;28;20311;-70
2023/03/30 11:35:16;;;;;;;0.50;0.50;;;;;;;18.46;30.17;99938.41;5049746;28;20231;-69
2023/03/30 11:37:48;;;;;;;0.47;0.47;;;;;;;18.55;29.96;99934.50;5051010;28;20218;-69
2023/03/30 11:40:17;;;;;;;0.30;0.30;;;;;;;18.63;29.51;99935.78;5049640;28;20638;-70
2023/03/30 11:42:46;;;;;;;0.50;0.50;;;;;;;18.76;29.39;99933.34;5050947;28;20198;-69